sensor_id;sensor_type;location;lat;lon;timestamp;temperature;humidity
38090;DHT22;23904;52.322;10.232;2022-08-18T00:01:56;20.40;99.90
38090;DHT22;23904;52.322;10.232;2022-08-18T00:04:23;20.40;99.90
38090;DHT22;23904;52.322;10.232;2022-08-18T00:06:49;20.50;99.90
38090;DHT22;23904;52.322;10.232;2022-08-18T00:09:14;20.50;99.90
38090;DHT22;23904;52.322;10.232;2022-08-18T00:11:42;20.50;99.90
38090;DHT22;23904;52.322;10.232;2022-08-18T00:14:12;20.50;99.90
38090;DHT22;23904;52.322;10.232;2022-08-18T00:16:37;20.40;99.90
38090;DHT22;23904;52.322;10.232;2022-08-18T00:19:03;20.40;99.90
38090;DHT22;23904;52.322;10.232;2022-08-18T00:21:28;20.40;99.90
38090;DHT22;23904;52.322;10.232;2022-08-18T00:23:54;20.40;99.90
38090;DHT22;23904;52.322;10.232;2022-08-18T00:26:19;20.40;99.90
38090;DHT22;23904;52.322;10.232;2022-08-18T00:28:45;20.40;99.90
38090;DHT22;23904;52.322;10.232;2022-08-18T00:31:11;20.40;99.90
38090;DHT22;23904;52.322;10.232;2022-08-18T00:33:36;20.40;99.90
38090;DHT22;23904;52.322;10.232;2022-08-18T00:36:02;20.50;99.90
38090;DHT22;23904;52.322;10.232;2022-08-18T00:38:28;20.40;99.90
38090;DHT22;23904;52.322;10.232;2022-08-18T00:40:55;20.40;99.90
38090;DHT22;23904;52.322;10.232;2022-08-18T00:43:42;20.40;99.90
38090;DHT22;23904;52.322;10.232;2022-08-18T00:46:16;20.40;99.90
38090;DHT22;23904;52.322;10.232;2022-08-18T00:48:42;20.40;99.90
38090;DHT22;23904;52.322;10.232;2022-08-18T00:51:12;20.30;99.90
38090;DHT22;23904;52.322;10.232;2022-08-18T00:53:56;20.20;99.90
38090;DHT22;23904;52.322;10.232;2022-08-18T00:56:26;20.20;99.90
38090;DHT22;23904;52.322;10.232;2022-08-18T00:59:00;20.20;99.90
38090;DHT22;23904;52.322;10.232;2022-08-18T01:01:31;20.20;99.90
38090;DHT22;23904;52.322;10.232;2022-08-18T01:04:16;20.20;99.90
38090;DHT22;23904;52.322;10.232;2022-08-18T01:06:52;20.10;99.90
38090;DHT22;23904;52.322;10.232;2022-08-18T01:09:19;20.10;99.90
38090;DHT22;23904;52.322;10.232;2022-08-18T01:11:45;20.10;99.90
38090;DHT22;23904;52.322;10.232;2022-08-18T01:14:12;20.10;99.90
38090;DHT22;23904;52.322;10.232;2022-08-18T01:16:44;20.20;99.90
38090;DHT22;23904;52.322;10.232;2022-08-18T01:19:29;20.20;99.90
38090;DHT22;23904;52.322;10.232;2022-08-18T01:24:48;20.20;99.90
38090;DHT22;23904;52.322;10.232;2022-08-18T01:27:33;20.20;99.90
38090;DHT22;23904;52.322;10.232;2022-08-18T01:30:08;20.20;99.90
38090;DHT22;23904;52.322;10.232;2022-08-18T01:32:36;20.20;99.90
38090;DHT22;23904;52.322;10.232;2022-08-18T01:35:02;20.20;99.90
38090;DHT22;23904;52.322;10.232;2022-08-18T01:37:28;20.20;99.90
38090;DHT22;23904;52.322;10.232;2022-08-18T01:39:54;20.10;99.90
38090;DHT22;23904;52.322;10.232;2022-08-18T01:42:19;20.10;99.90
38090;DHT22;23904;52.322;10.232;2022-08-18T01:44:46;20.00;99.90
38090;DHT22;23904;52.322;10.232;2022-08-18T01:47:12;19.90;99.90
38090;DHT22;23904;52.322;10.232;2022-08-18T01:49:39;20.00;99.90
38090;DHT22;23904;52.322;10.232;2022-08-18T01:52:10;19.90;99.90
38090;DHT22;23904;52.322;10.232;2022-08-18T01:54:36;19.90;99.90
38090;DHT22;23904;52.322;10.232;2022-08-18T01:57:03;19.90;99.90
38090;DHT22;23904;52.322;10.232;2022-08-18T01:59:29;19.90;99.90
38090;DHT22;23904;52.322;10.232;2022-08-18T02:01:54;19.90;99.90
38090;DHT22;23904;52.322;10.232;2022-08-18T02:04:26;19.90;99.90
38090;DHT22;23904;52.322;10.232;2022-08-18T02:06:52;19.80;99.90
38090;DHT22;23904;52.322;10.232;2022-08-18T02:09:17;19.80;99.90
38090;DHT22;23904;52.322;10.232;2022-08-18T02:11:43;19.80;99.90
38090;DHT22;23904;52.322;10.232;2022-08-18T02:14:08;19.80;99.90
38090;DHT22;23904;52.322;10.232;2022-08-18T02:16:34;19.80;99.90
38090;DHT22;23904;52.322;10.232;2022-08-18T02:19:00;19.80;99.90
38090;DHT22;23904;52.322;10.232;2022-08-18T02:21:25;19.80;99.90
38090;DHT22;23904;52.322;10.232;2022-08-18T02:23:50;19.80;99.90
38090;DHT22;23904;52.322;10.232;2022-08-18T02:26:17;19.80;99.90
38090;DHT22;23904;52.322;10.232;2022-08-18T02:28:43;19.70;99.90
38090;DHT22;23904;52.322;10.232;2022-08-18T02:31:15;19.70;99.90
38090;DHT22;23904;52.322;10.232;2022-08-18T02:33:41;19.70;99.90
38090;DHT22;23904;52.322;10.232;2022-08-18T02:36:07;19.80;99.90
38090;DHT22;23904;52.322;10.232;2022-08-18T02:38:34;19.70;99.90
38090;DHT22;23904;52.322;10.232;2022-08-18T02:41:03;19.70;99.90
38090;DHT22;23904;52.322;10.232;2022-08-18T02:43:31;19.80;99.90
38090;DHT22;23904;52.322;10.232;2022-08-18T02:45:57;19.80;99.90
38090;DHT22;23904;52.322;10.232;2022-08-18T02:48:22;19.70;99.90
38090;DHT22;23904;52.322;10.232;2022-08-18T02:51:20;19.70;99.90
38090;DHT22;23904;52.322;10.232;2022-08-18T02:53:45;19.70;99.90
38090;DHT22;23904;52.322;10.232;2022-08-18T02:56:12;19.50;99.90
38090;DHT22;23904;52.322;10.232;2022-08-18T02:59:03;19.50;99.90
38090;DHT22;23904;52.322;10.232;2022-08-18T03:01:37;19.60;99.90
38090;DHT22;23904;52.322;10.232;2022-08-18T03:04:05;19.60;99.90
38090;DHT22;23904;52.322;10.232;2022-08-18T03:06:32;19.50;99.90
38090;DHT22;23904;52.322;10.232;2022-08-18T03:08:58;19.50;99.90
38090;DHT22;23904;52.322;10.232;2022-08-18T03:11:27;19.50;99.90
38090;DHT22;23904;52.322;10.232;2022-08-18T03:13:54;19.50;99.90
38090;DHT22;23904;52.322;10.232;2022-08-18T03:16:22;19.50;99.90
38090;DHT22;23904;52.322;10.232;2022-08-18T03:18:50;19.40;99.90
38090;DHT22;23904;52.322;10.232;2022-08-18T03:21:19;19.40;99.90
38090;DHT22;23904;52.322;10.232;2022-08-18T03:23:48;19.40;99.90
38090;DHT22;23904;52.322;10.232;2022-08-18T03:26:16;19.30;99.90
38090;DHT22;23904;52.322;10.232;2022-08-18T03:28:44;19.20;99.90
38090;DHT22;23904;52.322;10.232;2022-08-18T03:31:11;19.20;99.90
38090;DHT22;23904;52.322;10.232;2022-08-18T03:33:39;19.30;99.90
38090;DHT22;23904;52.322;10.232;2022-08-18T03:36:09;19.30;99.90
38090;DHT22;23904;52.322;10.232;2022-08-18T03:38:37;19.30;99.90
38090;DHT22;23904;52.322;10.232;2022-08-18T03:41:04;19.30;99.90
38090;DHT22;23904;52.322;10.232;2022-08-18T03:43:30;19.30;99.90
38090;DHT22;23904;52.322;10.232;2022-08-18T03:46:00;19.30;99.90
38090;DHT22;23904;52.322;10.232;2022-08-18T03:48:25;19.20;99.90
38090;DHT22;23904;52.322;10.232;2022-08-18T03:50:51;19.20;99.90
38090;DHT22;23904;52.322;10.232;2022-08-18T03:53:16;19.20;99.90
38090;DHT22;23904;52.322;10.232;2022-08-18T03:55:42;19.20;99.90
38090;DHT22;23904;52.322;10.232;2022-08-18T03:58:08;19.20;99.90
38090;DHT22;23904;52.322;10.232;2022-08-18T04:00:38;19.10;99.90
38090;DHT22;23904;52.322;10.232;2022-08-18T04:03:03;19.10;99.90
38090;DHT22;23904;52.322;10.232;2022-08-18T04:05:29;19.10;99.90
38090;DHT22;23904;52.322;10.232;2022-08-18T04:07:55;19.00;99.90
38090;DHT22;23904;52.322;10.232;2022-08-18T04:10:24;19.00;99.90
38090;DHT22;23904;52.322;10.232;2022-08-18T04:12:50;19.00;99.90
38090;DHT22;23904;52.322;10.232;2022-08-18T04:15:16;19.10;99.90
38090;DHT22;23904;52.322;10.232;2022-08-18T04:17:42;19.00;99.90
38090;DHT22;23904;52.322;10.232;2022-08-18T04:20:11;18.90;99.90
38090;DHT22;23904;52.322;10.232;2022-08-18T04:22:37;18.90;99.90
38090;DHT22;23904;52.322;10.232;2022-08-18T04:25:03;18.90;99.90
38090;DHT22;23904;52.322;10.232;2022-08-18T04:27:28;18.80;99.90
38090;DHT22;23904;52.322;10.232;2022-08-18T04:29:54;18.90;99.90
38090;DHT22;23904;52.322;10.232;2022-08-18T04:32:24;18.90;99.90
38090;DHT22;23904;52.322;10.232;2022-08-18T04:34:49;18.90;99.90
38090;DHT22;23904;52.322;10.232;2022-08-18T04:37:16;19.00;99.90
38090;DHT22;23904;52.322;10.232;2022-08-18T04:39:42;19.10;99.90
38090;DHT22;23904;52.322;10.232;2022-08-18T04:42:08;19.10;99.90
38090;DHT22;23904;52.322;10.232;2022-08-18T04:44:34;19.20;99.90
38090;DHT22;23904;52.322;10.232;2022-08-18T04:47:02;19.20;99.90
38090;DHT22;23904;52.322;10.232;2022-08-18T04:49:28;19.30;99.90
38090;DHT22;23904;52.322;10.232;2022-08-18T04:51:57;19.30;99.90
38090;DHT22;23904;52.322;10.232;2022-08-18T04:54:41;19.30;99.90
38090;DHT22;23904;52.322;10.232;2022-08-18T04:57:12;19.40;99.90
38090;DHT22;23904;52.322;10.232;2022-08-18T04:59:40;19.30;99.90
38090;DHT22;23904;52.322;10.232;2022-08-18T05:02:06;19.20;99.90
38090;DHT22;23904;52.322;10.232;2022-08-18T05:04:34;19.20;99.90
38090;DHT22;23904;52.322;10.232;2022-08-18T05:07:02;19.20;99.90
38090;DHT22;23904;52.322;10.232;2022-08-18T05:09:28;19.30;99.90
38090;DHT22;23904;52.322;10.232;2022-08-18T05:11:53;19.30;99.90
38090;DHT22;23904;52.322;10.232;2022-08-18T05:14:19;19.40;99.90
38090;DHT22;23904;52.322;10.232;2022-08-18T05:16:45;19.50;99.90
38090;DHT22;23904;52.322;10.232;2022-08-18T05:19:11;19.50;99.90
38090;DHT22;23904;52.322;10.232;2022-08-18T05:21:37;19.60;99.90
38090;DHT22;23904;52.322;10.232;2022-08-18T05:24:07;19.70;99.90
38090;DHT22;23904;52.322;10.232;2022-08-18T05:26:33;19.80;99.90
38090;DHT22;23904;52.322;10.232;2022-08-18T05:28:59;19.80;99.90
38090;DHT22;23904;52.322;10.232;2022-08-18T05:31:27;19.80;99.90
38090;DHT22;23904;52.322;10.232;2022-08-18T05:33:54;19.90;99.90
38090;DHT22;23904;52.322;10.232;2022-08-18T05:36:33;20.00;99.90
38090;DHT22;23904;52.322;10.232;2022-08-18T05:42:07;20.10;99.90
38090;DHT22;23904;52.322;10.232;2022-08-18T05:44:40;20.10;99.90
38090;DHT22;23904;52.322;10.232;2022-08-18T05:47:13;20.10;99.90
38090;DHT22;23904;52.322;10.232;2022-08-18T05:49:43;20.10;99.90
38090;DHT22;23904;52.322;10.232;2022-08-18T05:52:17;20.20;99.90
38090;DHT22;23904;52.322;10.232;2022-08-18T05:54:55;20.20;99.90
38090;DHT22;23904;52.322;10.232;2022-08-18T05:57:47;20.30;99.90
38090;DHT22;23904;52.322;10.232;2022-08-18T06:00:18;20.30;99.90
38090;DHT22;23904;52.322;10.232;2022-08-18T06:02:56;20.40;99.90
38090;DHT22;23904;52.322;10.232;2022-08-18T06:05:30;20.40;99.90
38090;DHT22;23904;52.322;10.232;2022-08-18T06:07:59;20.40;99.90
38090;DHT22;23904;52.322;10.232;2022-08-18T06:10:26;20.50;99.90
38090;DHT22;23904;52.322;10.232;2022-08-18T06:12:55;20.60;99.90
38090;DHT22;23904;52.322;10.232;2022-08-18T06:15:26;20.60;99.90
38090;DHT22;23904;52.322;10.232;2022-08-18T06:18:28;20.70;99.90
38090;DHT22;23904;52.322;10.232;2022-08-18T06:26:22;20.90;99.90
38090;DHT22;23904;52.322;10.232;2022-08-18T06:29:16;21.00;99.90
38090;DHT22;23904;52.322;10.232;2022-08-18T06:40:29;21.30;99.90
38090;DHT22;23904;52.322;10.232;2022-08-18T06:42:54;21.40;99.90
38090;DHT22;23904;52.322;10.232;2022-08-18T06:45:28;21.40;99.90
38090;DHT22;23904;52.322;10.232;2022-08-18T06:50:59;21.50;99.90
38090;DHT22;23904;52.322;10.232;2022-08-18T06:59:22;21.60;99.90
38090;DHT22;23904;52.322;10.232;2022-08-18T07:01:58;21.60;99.90
38090;DHT22;23904;52.322;10.232;2022-08-18T07:04:35;21.60;99.90
38090;DHT22;23904;52.322;10.232;2022-08-18T07:07:18;21.60;99.90
38090;DHT22;23904;52.322;10.232;2022-08-18T07:09:45;21.70;99.90
38090;DHT22;23904;52.322;10.232;2022-08-18T07:12:18;21.80;99.90
38090;DHT22;23904;52.322;10.232;2022-08-18T07:14:48;21.80;99.90
38090;DHT22;23904;52.322;10.232;2022-08-18T07:17:31;21.90;99.90
38090;DHT22;23904;52.322;10.232;2022-08-18T07:20:17;22.00;99.90
38090;DHT22;23904;52.322;10.232;2022-08-18T07:23:00;22.10;99.90
38090;DHT22;23904;52.322;10.232;2022-08-18T07:25:36;22.10;99.90
38090;DHT22;23904;52.322;10.232;2022-08-18T07:28:02;22.20;99.90
38090;DHT22;23904;52.322;10.232;2022-08-18T07:30:32;22.20;99.90
38090;DHT22;23904;52.322;10.232;2022-08-18T07:33:18;22.40;99.90
38090;DHT22;23904;52.322;10.232;2022-08-18T07:35:59;22.60;99.90
38090;DHT22;23904;52.322;10.232;2022-08-18T07:38:32;22.50;99.90
38090;DHT22;23904;52.322;10.232;2022-08-18T07:41:08;22.50;99.90
38090;DHT22;23904;52.322;10.232;2022-08-18T07:44:09;22.60;99.90
38090;DHT22;23904;52.322;10.232;2022-08-18T07:46:50;22.50;99.90
38090;DHT22;23904;52.322;10.232;2022-08-18T07:49:19;22.50;99.90
38090;DHT22;23904;52.322;10.232;2022-08-18T07:51:53;22.70;99.90
38090;DHT22;23904;52.322;10.232;2022-08-18T08:02:33;23.10;99.90
38090;DHT22;23904;52.322;10.232;2022-08-18T08:05:09;22.90;99.90
38090;DHT22;23904;52.322;10.232;2022-08-18T08:10:46;23.00;99.90
38090;DHT22;23904;52.322;10.232;2022-08-18T08:13:32;22.90;99.90
38090;DHT22;23904;52.322;10.232;2022-08-18T08:18:53;23.00;99.90
38090;DHT22;23904;52.322;10.232;2022-08-18T08:21:23;22.90;99.90
38090;DHT22;23904;52.322;10.232;2022-08-18T08:24:08;23.00;99.90
38090;DHT22;23904;52.322;10.232;2022-08-18T08:32:33;23.50;99.90
38090;DHT22;23904;52.322;10.232;2022-08-18T08:35:06;23.40;99.90
38090;DHT22;23904;52.322;10.232;2022-08-18T08:37:47;23.50;99.90
38090;DHT22;23904;52.322;10.232;2022-08-18T08:43:01;23.90;99.90
38090;DHT22;23904;52.322;10.232;2022-08-18T08:45:35;23.80;99.90
38090;DHT22;23904;52.322;10.232;2022-08-18T08:48:12;23.90;99.90
38090;DHT22;23904;52.322;10.232;2022-08-18T08:50:48;23.90;99.90
38090;DHT22;23904;52.322;10.232;2022-08-18T08:53:25;24.10;99.90
38090;DHT22;23904;52.322;10.232;2022-08-18T08:55:59;24.20;99.90
38090;DHT22;23904;52.322;10.232;2022-08-18T09:00:54;23.90;99.90
38090;DHT22;23904;52.322;10.232;2022-08-18T09:03:49;23.80;99.90
38090;DHT22;23904;52.322;10.232;2022-08-18T09:06:26;23.80;99.90
38090;DHT22;23904;52.322;10.232;2022-08-18T09:09:26;24.40;99.90
38090;DHT22;23904;52.322;10.232;2022-08-18T09:12:43;25.20;99.90
38090;DHT22;23904;52.322;10.232;2022-08-18T09:21:17;26.40;99.90
38090;DHT22;23904;52.322;10.232;2022-08-18T09:23:47;26.70;99.90
38090;DHT22;23904;52.322;10.232;2022-08-18T09:29:15;27.30;98.50
38090;DHT22;23904;52.322;10.232;2022-08-18T09:31:44;27.80;97.80
38090;DHT22;23904;52.322;10.232;2022-08-18T09:34:27;28.80;96.00
38090;DHT22;23904;52.322;10.232;2022-08-18T09:39:30;29.10;94.60
38090;DHT22;23904;52.322;10.232;2022-08-18T09:42:16;29.60;93.50
38090;DHT22;23904;52.322;10.232;2022-08-18T09:49:55;30.80;88.80
38090;DHT22;23904;52.322;10.232;2022-08-18T09:57:31;31.50;82.00
38090;DHT22;23904;52.322;10.232;2022-08-18T10:07:52;29.50;85.20
38090;DHT22;23904;52.322;10.232;2022-08-18T10:16:21;28.20;90.40
38090;DHT22;23904;52.322;10.232;2022-08-18T10:21:22;27.80;90.90
38090;DHT22;23904;52.322;10.232;2022-08-18T10:23:55;27.40;91.90
38090;DHT22;23904;52.322;10.232;2022-08-18T10:29:09;27.50;92.80
38090;DHT22;23904;52.322;10.232;2022-08-18T10:37:03;26.90;92.70
38090;DHT22;23904;52.322;10.232;2022-08-18T10:42:37;27.10;93.60
38090;DHT22;23904;52.322;10.232;2022-08-18T10:45:29;27.00;93.50
38090;DHT22;23904;52.322;10.232;2022-08-18T10:48:17;27.30;93.60
38090;DHT22;23904;52.322;10.232;2022-08-18T10:50:51;27.30;94.00
38090;DHT22;23904;52.322;10.232;2022-08-18T10:56:41;27.80;93.00
38090;DHT22;23904;52.322;10.232;2022-08-18T10:59:24;28.00;92.80
38090;DHT22;23904;52.322;10.232;2022-08-18T11:02:34;27.80;92.40
38090;DHT22;23904;52.322;10.232;2022-08-18T11:05:06;28.40;92.40
38090;DHT22;23904;52.322;10.232;2022-08-18T11:07:34;28.70;91.20
38090;DHT22;23904;52.322;10.232;2022-08-18T11:10:01;28.80;90.30
38090;DHT22;23904;52.322;10.232;2022-08-18T11:13:03;28.70;90.50
38090;DHT22;23904;52.322;10.232;2022-08-18T11:15:44;29.30;90.00
38090;DHT22;23904;52.322;10.232;2022-08-18T11:18:34;29.90;86.00
38090;DHT22;23904;52.322;10.232;2022-08-18T11:24:20;31.40;80.40
38090;DHT22;23904;52.322;10.232;2022-08-18T11:26:50;32.20;79.00
38090;DHT22;23904;52.322;10.232;2022-08-18T11:31:43;33.50;74.20
38090;DHT22;23904;52.322;10.232;2022-08-18T11:34:18;33.20;71.40
38090;DHT22;23904;52.322;10.232;2022-08-18T11:36:59;33.50;69.80
38090;DHT22;23904;52.322;10.232;2022-08-18T11:39:26;34.40;67.80
38090;DHT22;23904;52.322;10.232;2022-08-18T11:41:52;35.50;63.80
38090;DHT22;23904;52.322;10.232;2022-08-18T11:44:21;34.40;61.80
38090;DHT22;23904;52.322;10.232;2022-08-18T11:46:55;33.40;65.10
38090;DHT22;23904;52.322;10.232;2022-08-18T11:49:31;32.20;68.10
38090;DHT22;23904;52.322;10.232;2022-08-18T11:51:59;31.50;70.90
38090;DHT22;23904;52.322;10.232;2022-08-18T11:54:35;30.80;72.80
38090;DHT22;23904;52.322;10.232;2022-08-18T11:57:27;30.30;71.90
38090;DHT22;23904;52.322;10.232;2022-08-18T11:59:54;30.10;73.70
38090;DHT22;23904;52.322;10.232;2022-08-18T12:02:22;29.60;75.50
38090;DHT22;23904;52.322;10.232;2022-08-18T12:04:55;29.80;75.60
38090;DHT22;23904;52.322;10.232;2022-08-18T12:07:33;30.20;74.60
38090;DHT22;23904;52.322;10.232;2022-08-18T12:10:22;30.30;73.70
38090;DHT22;23904;52.322;10.232;2022-08-18T12:12:51;30.40;74.40
38090;DHT22;23904;52.322;10.232;2022-08-18T12:17:45;29.90;76.40
38090;DHT22;23904;52.322;10.232;2022-08-18T12:20:12;29.80;78.80
38090;DHT22;23904;52.322;10.232;2022-08-18T12:22:40;29.50;77.40
38090;DHT22;23904;52.322;10.232;2022-08-18T12:25:11;29.50;77.80
38090;DHT22;23904;52.322;10.232;2022-08-18T12:27:38;29.30;78.60
38090;DHT22;23904;52.322;10.232;2022-08-18T12:30:04;28.90;77.90
38090;DHT22;23904;52.322;10.232;2022-08-18T12:32:32;28.90;79.50
38090;DHT22;23904;52.322;10.232;2022-08-18T12:34:59;29.10;80.10
38090;DHT22;23904;52.322;10.232;2022-08-18T12:37:27;29.00;80.40
38090;DHT22;23904;52.322;10.232;2022-08-18T12:39:54;29.10;79.00
38090;DHT22;23904;52.322;10.232;2022-08-18T12:42:20;28.90;80.30
38090;DHT22;23904;52.322;10.232;2022-08-18T12:44:46;28.60;80.60
38090;DHT22;23904;52.322;10.232;2022-08-18T12:47:17;28.30;81.50
38090;DHT22;23904;52.322;10.232;2022-08-18T12:49:44;28.30;81.30
38090;DHT22;23904;52.322;10.232;2022-08-18T12:52:10;28.20;82.20
38090;DHT22;23904;52.322;10.232;2022-08-18T12:54:36;28.10;83.10
38090;DHT22;23904;52.322;10.232;2022-08-18T12:57:05;27.90;83.00
38090;DHT22;23904;52.322;10.232;2022-08-18T12:59:31;27.70;84.50
38090;DHT22;23904;52.322;10.232;2022-08-18T13:01:56;27.70;84.50
38090;DHT22;23904;52.322;10.232;2022-08-18T13:04:23;27.60;84.60
38090;DHT22;23904;52.322;10.232;2022-08-18T13:06:51;27.60;84.70
38090;DHT22;23904;52.322;10.232;2022-08-18T13:09:18;27.50;85.70
38090;DHT22;23904;52.322;10.232;2022-08-18T13:11:46;27.30;85.80
38090;DHT22;23904;52.322;10.232;2022-08-18T13:14:11;27.30;86.10
38090;DHT22;23904;52.322;10.232;2022-08-18T13:16:39;27.20;86.70
38090;DHT22;23904;52.322;10.232;2022-08-18T13:19:07;27.10;84.90
38090;DHT22;23904;52.322;10.232;2022-08-18T13:21:32;27.10;86.40
38090;DHT22;23904;52.322;10.232;2022-08-18T13:23:58;27.00;86.50
38090;DHT22;23904;52.322;10.232;2022-08-18T13:26:30;27.00;87.60
38090;DHT22;23904;52.322;10.232;2022-08-18T13:28:56;26.80;87.60
38090;DHT22;23904;52.322;10.232;2022-08-18T13:31:22;26.80;88.30
38090;DHT22;23904;52.322;10.232;2022-08-18T13:33:49;26.70;88.30
38090;DHT22;23904;52.322;10.232;2022-08-18T13:36:15;26.70;88.90
38090;DHT22;23904;52.322;10.232;2022-08-18T13:38:41;26.60;88.80
38090;DHT22;23904;52.322;10.232;2022-08-18T13:41:08;26.70;88.70
38090;DHT22;23904;52.322;10.232;2022-08-18T13:43:36;26.60;88.40
38090;DHT22;23904;52.322;10.232;2022-08-18T13:46:07;26.70;89.40
38090;DHT22;23904;52.322;10.232;2022-08-18T13:48:33;26.60;90.00
38090;DHT22;23904;52.322;10.232;2022-08-18T13:51:00;26.70;90.10
38090;DHT22;23904;52.322;10.232;2022-08-18T13:53:26;26.50;90.30
38090;DHT22;23904;52.322;10.232;2022-08-18T13:55:54;26.40;89.80
38090;DHT22;23904;52.322;10.232;2022-08-18T13:58:22;26.50;90.20
38090;DHT22;23904;52.322;10.232;2022-08-18T14:00:50;26.40;90.20
38090;DHT22;23904;52.322;10.232;2022-08-18T14:03:17;26.30;91.00
38090;DHT22;23904;52.322;10.232;2022-08-18T14:05:44;26.20;90.50
38090;DHT22;23904;52.322;10.232;2022-08-18T14:08:10;26.30;90.70
38090;DHT22;23904;52.322;10.232;2022-08-18T14:10:36;26.20;90.70
38090;DHT22;23904;52.322;10.232;2022-08-18T14:13:02;26.00;90.70
38090;DHT22;23904;52.322;10.232;2022-08-18T14:15:30;25.90;91.10
38090;DHT22;23904;52.322;10.232;2022-08-18T14:17:56;25.70;91.40
38090;DHT22;23904;52.322;10.232;2022-08-18T14:20:21;25.70;91.10
38090;DHT22;23904;52.322;10.232;2022-08-18T14:23:19;25.60;91.40
38090;DHT22;23904;52.322;10.232;2022-08-18T14:26:03;25.70;92.30
38090;DHT22;23904;52.322;10.232;2022-08-18T14:28:47;25.70;94.10
38090;DHT22;23904;52.322;10.232;2022-08-18T14:31:13;25.50;96.60
38090;DHT22;23904;52.322;10.232;2022-08-18T14:33:39;25.40;96.90
38090;DHT22;23904;52.322;10.232;2022-08-18T14:36:05;25.40;97.30
38090;DHT22;23904;52.322;10.232;2022-08-18T14:38:33;25.40;98.20
38090;DHT22;23904;52.322;10.232;2022-08-18T14:41:03;25.30;99.30
38090;DHT22;23904;52.322;10.232;2022-08-18T14:43:29;25.20;99.70
38090;DHT22;23904;52.322;10.232;2022-08-18T14:45:55;25.10;99.90
38090;DHT22;23904;52.322;10.232;2022-08-18T14:48:21;24.90;99.90
38090;DHT22;23904;52.322;10.232;2022-08-18T14:50:49;24.90;99.90
38090;DHT22;23904;52.322;10.232;2022-08-18T14:53:16;24.90;99.90
38090;DHT22;23904;52.322;10.232;2022-08-18T14:55:44;24.90;99.90
38090;DHT22;23904;52.322;10.232;2022-08-18T14:58:10;24.80;99.90
38090;DHT22;23904;52.322;10.232;2022-08-18T15:00:35;24.70;99.90
38090;DHT22;23904;52.322;10.232;2022-08-18T15:03:01;24.60;99.90
38090;DHT22;23904;52.322;10.232;2022-08-18T15:05:28;24.50;99.90
38090;DHT22;23904;52.322;10.232;2022-08-18T15:07:57;24.40;99.90
38090;DHT22;23904;52.322;10.232;2022-08-18T15:10:23;24.40;99.90
38090;DHT22;23904;52.322;10.232;2022-08-18T15:12:49;24.30;99.90
38090;DHT22;23904;52.322;10.232;2022-08-18T15:15:15;24.30;99.90
38090;DHT22;23904;52.322;10.232;2022-08-18T15:17:40;24.30;99.90
38090;DHT22;23904;52.322;10.232;2022-08-18T15:20:08;24.30;99.90
38090;DHT22;23904;52.322;10.232;2022-08-18T15:22:43;24.40;99.90
38090;DHT22;23904;52.322;10.232;2022-08-18T15:25:29;24.40;99.90
38090;DHT22;23904;52.322;10.232;2022-08-18T15:28:16;24.40;99.90
38090;DHT22;23904;52.322;10.232;2022-08-18T15:30:47;24.40;99.90
38090;DHT22;23904;52.322;10.232;2022-08-18T15:33:14;24.40;99.90
38090;DHT22;23904;52.322;10.232;2022-08-18T15:35:44;24.40;99.90
38090;DHT22;23904;52.322;10.232;2022-08-18T15:38:12;24.40;99.90
38090;DHT22;23904;52.322;10.232;2022-08-18T15:40:47;24.40;99.90
38090;DHT22;23904;52.322;10.232;2022-08-18T15:43:13;24.40;99.90
38090;DHT22;23904;52.322;10.232;2022-08-18T15:45:41;24.40;99.90
38090;DHT22;23904;52.322;10.232;2022-08-18T15:48:09;24.60;99.90
38090;DHT22;23904;52.322;10.232;2022-08-18T15:50:35;24.60;99.90
38090;DHT22;23904;52.322;10.232;2022-08-18T15:53:03;24.60;99.90
38090;DHT22;23904;52.322;10.232;2022-08-18T15:55:31;24.50;99.90
38090;DHT22;23904;52.322;10.232;2022-08-18T15:57:57;24.40;99.90
38090;DHT22;23904;52.322;10.232;2022-08-18T16:00:25;24.50;99.90
38090;DHT22;23904;52.322;10.232;2022-08-18T16:03:00;24.50;99.90
38090;DHT22;23904;52.322;10.232;2022-08-18T16:05:40;24.40;99.90
38090;DHT22;23904;52.322;10.232;2022-08-18T16:08:08;24.40;99.90
38090;DHT22;23904;52.322;10.232;2022-08-18T16:10:35;24.50;99.90
38090;DHT22;23904;52.322;10.232;2022-08-18T16:13:03;24.40;99.90
38090;DHT22;23904;52.322;10.232;2022-08-18T16:15:34;24.20;99.90
38090;DHT22;23904;52.322;10.232;2022-08-18T16:18:00;24.30;99.90
38090;DHT22;23904;52.322;10.232;2022-08-18T16:20:26;24.20;99.90
38090;DHT22;23904;52.322;10.232;2022-08-18T16:22:53;24.20;99.90
38090;DHT22;23904;52.322;10.232;2022-08-18T16:25:20;24.20;99.90
38090;DHT22;23904;52.322;10.232;2022-08-18T16:27:45;24.20;99.90
38090;DHT22;23904;52.322;10.232;2022-08-18T16:30:18;24.20;99.90
38090;DHT22;23904;52.322;10.232;2022-08-18T16:32:45;24.20;99.90
38090;DHT22;23904;52.322;10.232;2022-08-18T16:35:12;24.20;99.90
38090;DHT22;23904;52.322;10.232;2022-08-18T16:37:37;24.10;99.90
38090;DHT22;23904;52.322;10.232;2022-08-18T16:40:03;24.10;99.90
38090;DHT22;23904;52.322;10.232;2022-08-18T16:42:29;24.00;99.90
38090;DHT22;23904;52.322;10.232;2022-08-18T16:44:58;24.00;99.90
38090;DHT22;23904;52.322;10.232;2022-08-18T16:47:23;24.00;99.90
38090;DHT22;23904;52.322;10.232;2022-08-18T16:49:49;24.00;99.90
38090;DHT22;23904;52.322;10.232;2022-08-18T16:52:16;23.90;99.90
38090;DHT22;23904;52.322;10.232;2022-08-18T16:54:42;23.90;99.90
38090;DHT22;23904;52.322;10.232;2022-08-18T16:57:09;23.90;99.90
38090;DHT22;23904;52.322;10.232;2022-08-18T16:59:35;23.80;99.90
38090;DHT22;23904;52.322;10.232;2022-08-18T17:02:20;23.80;99.90
38090;DHT22;23904;52.322;10.232;2022-08-18T17:05:04;23.80;99.90
38090;DHT22;23904;52.322;10.232;2022-08-18T17:07:32;23.90;99.90
38090;DHT22;23904;52.322;10.232;2022-08-18T17:09:58;23.90;99.90
38090;DHT22;23904;52.322;10.232;2022-08-18T17:12:25;23.80;99.90
38090;DHT22;23904;52.322;10.232;2022-08-18T17:14:51;23.90;99.90
38090;DHT22;23904;52.322;10.232;2022-08-18T17:17:18;23.90;99.90
38090;DHT22;23904;52.322;10.232;2022-08-18T17:19:45;23.80;99.90
38090;DHT22;23904;52.322;10.232;2022-08-18T17:22:12;23.70;99.90
38090;DHT22;23904;52.322;10.232;2022-08-18T17:24:38;23.70;99.90
38090;DHT22;23904;52.322;10.232;2022-08-18T17:27:21;23.70;99.90
38090;DHT22;23904;52.322;10.232;2022-08-18T17:30:04;23.70;99.90
38090;DHT22;23904;52.322;10.232;2022-08-18T17:32:53;23.70;99.90